sensor_id;sensor_type;location;lat;lon;timestamp;pressure;altitude;pressure_sealevel;temperature;humidity
51439;BME280;38816;51.142;-0.974;2022-09-09T00:03:40;98835.59;;;14.15;100.00
51439;BME280;38816;51.142;-0.974;2022-09-09T00:11:52;98829.28;;;14.28;100.00
51439;BME280;38816;51.142;-0.974;2022-09-09T00:14:30;98832.66;;;14.30;100.00
51439;BME280;38816;51.142;-0.974;2022-09-09T00:17:03;98818.31;;;14.17;100.00
51439;BME280;38816;51.142;-0.974;2022-09-09T00:19:41;98823.47;;;14.17;100.00
51439;BME280;38816;51.142;-0.974;2022-09-09T00:22:19;98840.56;;;14.24;100.00
51439;BME280;38816;51.142;-0.974;2022-09-09T00:24:46;98821.78;;;14.16;100.00
51439;BME280;38816;51.142;-0.974;2022-09-09T00:30:24;98850.75;;;14.30;100.00
51439;BME280;38816;51.142;-0.974;2022-09-09T00:32:54;98849.06;;;14.29;100.00
51439;BME280;38816;51.142;-0.974;2022-09-09T00:35:37;98847.31;;;14.30;100.00
51439;BME280;38816;51.142;-0.974;2022-09-09T00:38:19;98841.22;;;14.34;100.00
51439;BME280;38816;51.142;-0.974;2022-09-09T00:43:40;98842.91;;;14.35;100.00
51439;BME280;38816;51.142;-0.974;2022-09-09T00:46:10;98843.84;;;14.32;100.00
51439;BME280;38816;51.142;-0.974;2022-09-09T00:49:28;98840.38;;;14.32;100.00
51439;BME280;38816;51.142;-0.974;2022-09-09T00:52:03;98839.44;;;14.36;100.00
51439;BME280;38816;51.142;-0.974;2022-09-09T00:54:38;98835.94;;;14.38;100.00
51439;BME280;38816;51.142;-0.974;2022-09-09T00:59:57;98826.59;;;14.31;100.00
51439;BME280;38816;51.142;-0.974;2022-09-09T01:04:53;98822.47;;;14.24;100.00
51439;BME280;38816;51.142;-0.974;2022-09-09T01:07:19;98828.53;;;14.23;100.00
51439;BME280;38816;51.142;-0.974;2022-09-09T01:09:52;98836.09;;;14.31;100.00
51439;BME280;38816;51.142;-0.974;2022-09-09T01:15:12;98832.66;;;14.30;100.00
51439;BME280;38816;51.142;-0.974;2022-09-09T01:20:14;98839.56;;;14.30;100.00
51439;BME280;38816;51.142;-0.974;2022-09-09T01:28:49;98830.47;;;14.12;100.00
51439;BME280;38816;51.142;-0.974;2022-09-09T01:31:21;98835.81;;;14.03;100.00
51439;BME280;38816;51.142;-0.974;2022-09-09T01:33:48;98842.78;;;14.01;100.00
51439;BME280;38816;51.142;-0.974;2022-09-09T01:36:28;98824.03;;;13.89;100.00
51439;BME280;38816;51.142;-0.974;2022-09-09T01:38:55;98831.69;;;13.94;100.00
51439;BME280;38816;51.142;-0.974;2022-09-09T01:41:20;98849.50;;;14.08;100.00
51439;BME280;38816;51.142;-0.974;2022-09-09T01:43:45;98846.09;;;14.06;100.00
51439;BME280;38816;51.142;-0.974;2022-09-09T01:46:12;98859.03;;;14.04;100.00
51439;BME280;38816;51.142;-0.974;2022-09-09T01:48:37;98865.84;;;14.08;100.00
51439;BME280;38816;51.142;-0.974;2022-09-09T01:51:03;98848.69;;;14.06;100.00
51439;BME280;38816;51.142;-0.974;2022-09-09T01:53:29;98857.09;;;14.15;100.00
51439;BME280;38816;51.142;-0.974;2022-09-09T01:56:09;98852.84;;;14.13;100.00
51439;BME280;38816;51.142;-0.974;2022-09-09T02:04:45;98845.28;;;14.04;100.00
51439;BME280;38816;51.142;-0.974;2022-09-09T02:13:17;98846.41;;;13.90;100.00
51439;BME280;38816;51.142;-0.974;2022-09-09T02:15:59;98858.38;;;13.94;100.00
51439;BME280;38816;51.142;-0.974;2022-09-09T02:18:32;98859.31;;;13.92;100.00
51439;BME280;38816;51.142;-0.974;2022-09-09T02:21:00;98843.94;;;13.84;100.00
51439;BME280;38816;51.142;-0.974;2022-09-09T02:23:28;98837.94;;;13.84;100.00
51439;BME280;38816;51.142;-0.974;2022-09-09T02:25:56;98861.03;;;13.91;100.00
51439;BME280;38816;51.142;-0.974;2022-09-09T02:28:25;98850.84;;;13.84;100.00
51439;BME280;38816;51.142;-0.974;2022-09-09T02:30:53;98869.72;;;13.86;100.00
51439;BME280;38816;51.142;-0.974;2022-09-09T02:33:25;98866.31;;;13.85;100.00
51439;BME280;38816;51.142;-0.974;2022-09-09T02:35:52;98862.09;;;13.80;100.00
51439;BME280;38816;51.142;-0.974;2022-09-09T02:38:25;98875.69;;;13.89;100.00
51439;BME280;38816;51.142;-0.974;2022-09-09T02:40:51;98879.03;;;13.96;100.00
51439;BME280;38816;51.142;-0.974;2022-09-09T02:43:17;98878.94;;;13.99;100.00
51439;BME280;38816;51.142;-0.974;2022-09-09T02:46:01;98871.28;;;13.96;100.00
51439;BME280;38816;51.142;-0.974;2022-09-09T02:48:51;98880.50;;;14.08;100.00
51439;BME280;38816;51.142;-0.974;2022-09-09T02:51:24;98883.09;;;14.08;100.00
51439;BME280;38816;51.142;-0.974;2022-09-09T02:54:09;98879.78;;;14.01;100.00
51439;BME280;38816;51.142;-0.974;2022-09-09T02:56:41;98890.03;;;14.04;100.00
51439;BME280;38816;51.142;-0.974;2022-09-09T02:59:10;98891.13;;;13.94;100.00
51439;BME280;38816;51.142;-0.974;2022-09-09T03:01:36;98881.84;;;13.84;100.00
51439;BME280;38816;51.142;-0.974;2022-09-09T03:04:04;98885.34;;;13.80;100.00
51439;BME280;38816;51.142;-0.974;2022-09-09T03:06:30;98895.56;;;13.86;100.00
51439;BME280;38816;51.142;-0.974;2022-09-09T03:08:56;98901.56;;;13.86;100.00
51439;BME280;38816;51.142;-0.974;2022-09-09T03:11:22;98900.72;;;13.86;100.00
51439;BME280;38816;51.142;-0.974;2022-09-09T03:13:47;98896.50;;;13.83;100.00
51439;BME280;38816;51.142;-0.974;2022-09-09T03:16:14;98909.25;;;13.91;100.00
51439;BME280;38816;51.142;-0.974;2022-09-09T03:18:40;98903.91;;;14.00;100.00
51439;BME280;38816;51.142;-0.974;2022-09-09T03:21:05;98899.72;;;13.94;100.00
51439;BME280;38816;51.142;-0.974;2022-09-09T03:23:32;98907.31;;;14.02;100.00
51439;BME280;38816;51.142;-0.974;2022-09-09T03:25:57;98904.03;;;13.94;100.00
51439;BME280;38816;51.142;-0.974;2022-09-09T03:28:23;98907.44;;;13.96;100.00
51439;BME280;38816;51.142;-0.974;2022-09-09T03:30:58;98902.16;;;14.02;100.00
51439;BME280;38816;51.142;-0.974;2022-09-09T03:33:24;98896.94;;;14.04;100.00
51439;BME280;38816;51.142;-0.974;2022-09-09T03:35:49;98913.16;;;14.12;100.00
51439;BME280;38816;51.142;-0.974;2022-09-09T03:38:15;98921.81;;;14.11;100.00
51439;BME280;38816;51.142;-0.974;2022-09-09T03:40:51;98910.66;;;14.07;100.00
51439;BME280;38816;51.142;-0.974;2022-09-09T03:43:24;98913.22;;;14.09;100.00
51439;BME280;38816;51.142;-0.974;2022-09-09T03:45:49;98924.34;;;14.12;100.00
51439;BME280;38816;51.142;-0.974;2022-09-09T03:48:16;98929.47;;;14.15;100.00
51439;BME280;38816;51.142;-0.974;2022-09-09T03:50:49;98944.03;;;14.18;100.00
51439;BME280;38816;51.142;-0.974;2022-09-09T03:53:16;98937.22;;;14.15;100.00
51439;BME280;38816;51.142;-0.974;2022-09-09T03:55:49;98932.88;;;14.17;100.00
51439;BME280;38816;51.142;-0.974;2022-09-09T03:58:18;98922.75;;;14.07;100.00
51439;BME280;38816;51.142;-0.974;2022-09-09T04:00:53;98934.63;;;14.15;100.00
51439;BME280;38816;51.142;-0.974;2022-09-09T04:03:19;98946.72;;;14.15;100.00
51439;BME280;38816;51.142;-0.974;2022-09-09T04:05:44;98934.81;;;14.06;100.00
51439;BME280;38816;51.142;-0.974;2022-09-09T04:08:09;98951.00;;;14.16;100.00
51439;BME280;38816;51.142;-0.974;2022-09-09T04:10:35;98942.66;;;14.02;100.00
51439;BME280;38816;51.142;-0.974;2022-09-09T04:13:04;98940.88;;;14.04;100.00
51439;BME280;38816;51.142;-0.974;2022-09-09T04:15:30;98949.47;;;14.06;100.00
51439;BME280;38816;51.142;-0.974;2022-09-09T04:17:56;98957.13;;;14.09;100.00
51439;BME280;38816;51.142;-0.974;2022-09-09T04:20:21;98959.81;;;14.06;100.00
51439;BME280;38816;51.142;-0.974;2022-09-09T04:22:47;98950.47;;;13.97;100.00
51439;BME280;38816;51.142;-0.974;2022-09-09T04:25:13;98956.50;;;13.98;100.00
51439;BME280;38816;51.142;-0.974;2022-09-09T04:27:38;98953.19;;;13.89;100.00
51439;BME280;38816;51.142;-0.974;2022-09-09T04:30:04;98963.53;;;13.89;100.00
51439;BME280;38816;51.142;-0.974;2022-09-09T04:32:32;98956.75;;;13.82;100.00
51439;BME280;38816;51.142;-0.974;2022-09-09T04:34:58;98963.56;;;13.86;100.00
51439;BME280;38816;51.142;-0.974;2022-09-09T04:37:23;98968.66;;;13.91;100.00
51439;BME280;38816;51.142;-0.974;2022-09-09T04:39:50;98961.78;;;13.91;100.00
51439;BME280;38816;51.142;-0.974;2022-09-09T04:42:15;98957.47;;;13.90;100.00
51439;BME280;38816;51.142;-0.974;2022-09-09T04:44:42;98960.13;;;13.86;100.00
51439;BME280;38816;51.142;-0.974;2022-09-09T04:47:09;98971.41;;;13.82;100.00
51439;BME280;38816;51.142;-0.974;2022-09-09T04:49:34;98968.09;;;13.75;100.00
51439;BME280;38816;51.142;-0.974;2022-09-09T04:52:01;98981.81;;;13.79;100.00
51439;BME280;38816;51.142;-0.974;2022-09-09T04:54:27;98966.44;;;13.71;100.00
51439;BME280;38816;51.142;-0.974;2022-09-09T04:56:53;98975.06;;;13.68;100.00
51439;BME280;38816;51.142;-0.974;2022-09-09T04:59:20;98970.81;;;13.66;100.00
51439;BME280;38816;51.142;-0.974;2022-09-09T05:01:45;98983.63;;;13.72;100.00
51439;BME280;38816;51.142;-0.974;2022-09-09T05:04:11;98985.28;;;13.76;100.00
51439;BME280;38816;51.142;-0.974;2022-09-09T05:06:36;98978.47;;;13.74;100.00
51439;BME280;38816;51.142;-0.974;2022-09-09T05:09:02;98992.06;;;13.83;100.00
51439;BME280;38816;51.142;-0.974;2022-09-09T05:11:30;98975.88;;;13.74;100.00
51439;BME280;38816;51.142;-0.974;2022-09-09T05:13:57;98982.66;;;13.79;100.00
51439;BME280;38816;51.142;-0.974;2022-09-09T05:16:22;98980.16;;;13.75;100.00
51439;BME280;38816;51.142;-0.974;2022-09-09T05:18:48;98995.66;;;13.75;100.00
51439;BME280;38816;51.142;-0.974;2022-09-09T05:21:17;98995.53;;;13.81;100.00
51439;BME280;38816;51.142;-0.974;2022-09-09T05:23:44;98996.41;;;13.80;100.00
51439;BME280;38816;51.142;-0.974;2022-09-09T05:26:16;98998.16;;;13.79;100.00
51439;BME280;38816;51.142;-0.974;2022-09-09T05:28:42;99010.16;;;13.83;100.00
51439;BME280;38816;51.142;-0.974;2022-09-09T05:31:09;99008.34;;;13.88;100.00
51439;BME280;38816;51.142;-0.974;2022-09-09T05:33:36;99002.28;;;13.89;100.00
51439;BME280;38816;51.142;-0.974;2022-09-09T05:36:08;99013.34;;;13.98;100.00
51439;BME280;38816;51.142;-0.974;2022-09-09T05:38:34;99023.69;;;13.98;100.00
51439;BME280;38816;51.142;-0.974;2022-09-09T05:41:01;99015.03;;;13.99;100.00
51439;BME280;38816;51.142;-0.974;2022-09-09T05:43:28;99015.06;;;13.97;100.00
51439;BME280;38816;51.142;-0.974;2022-09-09T05:48:30;99022.75;;;14.00;100.00
51439;BME280;38816;51.142;-0.974;2022-09-09T05:50:57;99028.66;;;14.10;100.00
51439;BME280;38816;51.142;-0.974;2022-09-09T05:53:23;99014.19;;;13.98;100.00
51439;BME280;38816;51.142;-0.974;2022-09-09T05:55:48;99023.56;;;14.04;100.00
51439;BME280;38816;51.142;-0.974;2022-09-09T05:58:14;99024.56;;;13.95;100.00
51439;BME280;38816;51.142;-0.974;2022-09-09T06:00:42;99024.56;;;13.97;100.00
51439;BME280;38816;51.142;-0.974;2022-09-09T06:03:11;99033.13;;;13.99;100.00
51439;BME280;38816;51.142;-0.974;2022-09-09T06:05:36;99039.19;;;13.98;100.00
51439;BME280;38816;51.142;-0.974;2022-09-09T06:08:02;99038.28;;;13.99;100.00
51439;BME280;38816;51.142;-0.974;2022-09-09T06:10:28;99039.13;;;14.01;100.00
51439;BME280;38816;51.142;-0.974;2022-09-09T06:12:53;99047.69;;;14.03;100.00
51439;BME280;38816;51.142;-0.974;2022-09-09T06:15:19;99056.38;;;13.99;100.00
51439;BME280;38816;51.142;-0.974;2022-09-09T06:17:44;99053.75;;;14.00;100.00
51439;BME280;38816;51.142;-0.974;2022-09-09T06:20:10;99058.97;;;13.99;100.00
51439;BME280;38816;51.142;-0.974;2022-09-09T06:22:39;99061.44;;;14.05;100.00
51439;BME280;38816;51.142;-0.974;2022-09-09T06:25:07;99049.50;;;13.98;100.00
51439;BME280;38816;51.142;-0.974;2022-09-09T06:27:33;99057.31;;;13.94;100.00
51439;BME280;38816;51.142;-0.974;2022-09-09T06:29:58;99059.00;;;13.97;100.00
51439;BME280;38816;51.142;-0.974;2022-09-09T06:32:23;99056.50;;;13.92;100.00
51439;BME280;38816;51.142;-0.974;2022-09-09T06:34:49;99068.44;;;13.98;100.00
51439;BME280;38816;51.142;-0.974;2022-09-09T06:37:14;99059.97;;;13.91;100.00
51439;BME280;38816;51.142;-0.974;2022-09-09T06:39:40;99080.47;;;14.01;100.00
51439;BME280;38816;51.142;-0.974;2022-09-09T06:42:06;99071.84;;;14.02;100.00
51439;BME280;38816;51.142;-0.974;2022-09-09T06:44:33;99085.53;;;14.07;100.00
51439;BME280;38816;51.142;-0.974;2022-09-09T06:46:59;99072.66;;;14.04;100.00
51439;BME280;38816;51.142;-0.974;2022-09-09T06:49:24;99073.50;;;14.06;100.00
51439;BME280;38816;51.142;-0.974;2022-09-09T06:51:49;99072.56;;;14.10;100.00
51439;BME280;38816;51.142;-0.974;2022-09-09T06:54:15;99087.00;;;14.23;100.00
51439;BME280;38816;51.142;-0.974;2022-09-09T06:56:41;99074.00;;;14.28;100.00
51439;BME280;38816;51.142;-0.974;2022-09-09T06:59:09;99072.19;;;14.31;100.00
51439;BME280;38816;51.142;-0.974;2022-09-09T07:01:36;99090.03;;;14.47;100.00
51439;BME280;38816;51.142;-0.974;2022-09-09T07:04:03;99084.06;;;14.43;100.00
51439;BME280;38816;51.142;-0.974;2022-09-09T07:06:34;99097.75;;;14.50;100.00
51439;BME280;38816;51.142;-0.974;2022-09-09T07:09:05;99102.06;;;14.51;100.00
51439;BME280;38816;51.142;-0.974;2022-09-09T07:11:37;99098.72;;;14.42;100.00
51439;BME280;38816;51.142;-0.974;2022-09-09T07:14:02;99105.50;;;14.50;100.00
51439;BME280;38816;51.142;-0.974;2022-09-09T07:16:28;99093.50;;;14.46;100.00
51439;BME280;38816;51.142;-0.974;2022-09-09T07:18:55;99101.28;;;14.44;100.00
51439;BME280;38816;51.142;-0.974;2022-09-09T07:21:24;99110.63;;;14.53;100.00
51439;BME280;38816;51.142;-0.974;2022-09-09T07:23:51;99107.13;;;14.57;100.00
51439;BME280;38816;51.142;-0.974;2022-09-09T07:26:19;99117.25;;;14.69;100.00
51439;BME280;38816;51.142;-0.974;2022-09-09T07:28:46;99124.97;;;14.71;100.00
51439;BME280;38816;51.142;-0.974;2022-09-09T07:31:17;99115.56;;;14.68;100.00
51439;BME280;38816;51.142;-0.974;2022-09-09T07:33:44;99119.72;;;14.75;100.00
51439;BME280;38816;51.142;-0.974;2022-09-09T07:38:46;99129.78;;;14.90;100.00
51439;BME280;38816;51.142;-0.974;2022-09-09T07:43:46;99131.28;;;15.02;100.00
51439;BME280;38816;51.142;-0.974;2022-09-09T07:46:14;99130.47;;;15.00;100.00
51439;BME280;38816;51.142;-0.974;2022-09-09T07:48:45;99142.28;;;15.12;100.00
51439;BME280;38816;51.142;-0.974;2022-09-09T07:51:14;99145.72;;;15.14;100.00
51439;BME280;38816;51.142;-0.974;2022-09-09T07:53:44;99138.94;;;15.07;100.00
51439;BME280;38816;51.142;-0.974;2022-09-09T07:56:15;99151.72;;;15.16;100.00
51439;BME280;38816;51.142;-0.974;2022-09-09T07:58:42;99155.91;;;15.22;100.00
51439;BME280;38816;51.142;-0.974;2022-09-09T08:01:11;99142.75;;;15.32;100.00
51439;BME280;38816;51.142;-0.974;2022-09-09T08:03:37;99158.09;;;15.41;100.00
51439;BME280;38816;51.142;-0.974;2022-09-09T08:06:05;99157.22;;;15.42;100.00
51439;BME280;38816;51.142;-0.974;2022-09-09T08:08:32;99162.63;;;15.30;100.00
51439;BME280;38816;51.142;-0.974;2022-09-09T08:11:03;99163.38;;;15.37;100.00
51439;BME280;38816;51.142;-0.974;2022-09-09T08:13:30;99174.34;;;15.50;100.00
51439;BME280;38816;51.142;-0.974;2022-09-09T08:16:04;99165.78;;;15.46;100.00
51439;BME280;38816;51.142;-0.974;2022-09-09T08:18:29;99179.53;;;15.50;100.00
51439;BME280;38816;51.142;-0.974;2022-09-09T08:20:55;99185.38;;;15.58;100.00
51439;BME280;38816;51.142;-0.974;2022-09-09T08:23:20;99180.19;;;15.58;100.00
51439;BME280;38816;51.142;-0.974;2022-09-09T08:25:46;99187.84;;;15.67;100.00
51439;BME280;38816;51.142;-0.974;2022-09-09T08:28:14;99180.50;;;15.86;100.00
51439;BME280;38816;51.142;-0.974;2022-09-09T08:30:39;99195.88;;;15.93;100.00
51439;BME280;38816;51.142;-0.974;2022-09-09T08:33:04;99183.94;;;15.86;100.00
51439;BME280;38816;51.142;-0.974;2022-09-09T08:35:30;99194.22;;;15.91;100.00
51439;BME280;38816;51.142;-0.974;2022-09-09T08:37:57;99190.69;;;15.93;100.00
51439;BME280;38816;51.142;-0.974;2022-09-09T08:40:28;99200.31;;;15.88;100.00
51439;BME280;38816;51.142;-0.974;2022-09-09T08:42:57;99197.06;;;15.79;100.00
51439;BME280;38816;51.142;-0.974;2022-09-09T08:45:29;99215.34;;;15.73;100.00
51439;BME280;38816;51.142;-0.974;2022-09-09T08:48:15;99216.41;;;15.61;100.00
51439;BME280;38816;51.142;-0.974;2022-09-09T08:50:45;99205.47;;;15.47;100.00
51439;BME280;38816;51.142;-0.974;2022-09-09T08:53:20;99220.03;;;15.54;100.00
51439;BME280;38816;51.142;-0.974;2022-09-09T08:55:54;99215.66;;;15.56;100.00
51439;BME280;38816;51.142;-0.974;2022-09-09T08:58:22;99229.28;;;15.67;100.00
51439;BME280;38816;51.142;-0.974;2022-09-09T09:03:51;99225.22;;;15.95;100.00
51439;BME280;38816;51.142;-0.974;2022-09-09T09:11:52;99226.59;;;16.49;100.00
51439;BME280;38816;51.142;-0.974;2022-09-09T09:14:22;99228.84;;;16.63;99.94
51439;BME280;38816;51.142;-0.974;2022-09-09T09:16:57;99223.16;;;16.84;100.00
51439;BME280;38816;51.142;-0.974;2022-09-09T09:19:24;99240.25;;;17.26;99.60
51439;BME280;38816;51.142;-0.974;2022-09-09T09:22:17;99243.25;;;17.43;93.63
51439;BME280;38816;51.142;-0.974;2022-09-09T09:27:16;99243.53;;;17.00;93.41
51439;BME280;38816;51.142;-0.974;2022-09-09T09:29:44;99243.53;;;17.00;95.36
51439;BME280;38816;51.142;-0.974;2022-09-09T09:32:14;99245.69;;;17.16;94.27
51439;BME280;38816;51.142;-0.974;2022-09-09T09:34:41;99249.53;;;17.34;93.90
51439;BME280;38816;51.142;-0.974;2022-09-09T09:37:16;99251.72;;;17.50;90.42
51439;BME280;38816;51.142;-0.974;2022-09-09T09:39:45;99265.28;;;17.61;89.25
51439;BME280;38816;51.142;-0.974;2022-09-09T09:42:12;99261.13;;;17.54;90.28
51439;BME280;38816;51.142;-0.974;2022-09-09T09:44:39;99264.63;;;17.53;90.43
51439;BME280;38816;51.142;-0.974;2022-09-09T09:47:23;99271.59;;;17.52;89.71
51439;BME280;38816;51.142;-0.974;2022-09-09T09:49:57;99266.31;;;17.54;91.29
51439;BME280;38816;51.142;-0.974;2022-09-09T09:52:28;99278.63;;;17.80;87.84
51439;BME280;38816;51.142;-0.974;2022-09-09T09:54:54;99274.59;;;17.68;85.65
51439;BME280;38816;51.142;-0.974;2022-09-09T09:57:26;99282.38;;;17.68;86.92
51439;BME280;38816;51.142;-0.974;2022-09-09T10:00:13;99288.56;;;17.64;87.86
51439;BME280;38816;51.142;-0.974;2022-09-09T10:02:41;99276.72;;;17.54;87.76
51439;BME280;38816;51.142;-0.974;2022-09-09T10:05:30;99290.44;;;17.59;86.60
51439;BME280;38816;51.142;-0.974;2022-09-09T10:08:04;99281.13;;;17.52;83.61
51439;BME280;38816;51.142;-0.974;2022-09-09T10:16:28;99298.06;;;17.98;84.63
51439;BME280;38816;51.142;-0.974;2022-09-09T10:19:01;99290.69;;;18.12;80.43
51439;BME280;38816;51.142;-0.974;2022-09-09T10:27:18;99288.19;;;18.93;76.89
51439;BME280;38816;51.142;-0.974;2022-09-09T10:30:12;99301.28;;;19.16;73.07
51439;BME280;38816;51.142;-0.974;2022-09-09T10:32:46;99289.81;;;19.22;72.94
51439;BME280;38816;51.142;-0.974;2022-09-09T10:40:48;99288.88;;;19.98;68.32
51439;BME280;38816;51.142;-0.974;2022-09-09T10:51:43;99287.34;;;19.92;64.60
51439;BME280;38816;51.142;-0.974;2022-09-09T10:56:52;99295.84;;;19.24;69.09
51439;BME280;38816;51.142;-0.974;2022-09-09T10:59:23;99295.94;;;18.94;70.03
51439;BME280;38816;51.142;-0.974;2022-09-09T11:02:02;99285.63;;;18.63;72.50
51439;BME280;38816;51.142;-0.974;2022-09-09T11:04:40;99302.22;;;18.61;74.30
51439;BME280;38816;51.142;-0.974;2022-09-09T11:07:10;99299.47;;;18.37;74.42
51439;BME280;38816;51.142;-0.974;2022-09-09T11:09:43;99307.50;;;18.30;75.73
51439;BME280;38816;51.142;-0.974;2022-09-09T11:12:18;99307.91;;;18.16;75.03
51439;BME280;38816;51.142;-0.974;2022-09-09T11:14:53;99299.28;;;18.15;76.18
51439;BME280;38816;51.142;-0.974;2022-09-09T11:17:28;99313.13;;;18.44;75.81
51439;BME280;38816;51.142;-0.974;2022-09-09T11:19:56;99306.09;;;18.76;74.79
51439;BME280;38816;51.142;-0.974;2022-09-09T11:22:38;99313.47;;;18.89;73.33
51439;BME280;38816;51.142;-0.974;2022-09-09T11:33:13;99320.47;;;18.31;75.14
51439;BME280;38816;51.142;-0.974;2022-09-09T11:38:45;99341.88;;;17.80;77.49
51439;BME280;38816;51.142;-0.974;2022-09-09T11:41:13;99338.50;;;17.42;79.46
51439;BME280;38816;51.142;-0.974;2022-09-09T11:43:45;99336.59;;;17.15;80.25
51439;BME280;38816;51.142;-0.974;2022-09-09T11:46:14;99347.53;;;16.93;84.15
51439;BME280;38816;51.142;-0.974;2022-09-09T11:48:56;99340.00;;;16.83;83.59
51439;BME280;38816;51.142;-0.974;2022-09-09T11:51:29;99342.84;;;16.72;86.84
51439;BME280;38816;51.142;-0.974;2022-09-09T11:53:59;99356.84;;;16.63;86.40
51439;BME280;38816;51.142;-0.974;2022-09-09T11:56:34;99346.63;;;16.56;86.49
51439;BME280;38816;51.142;-0.974;2022-09-09T11:59:05;99345.72;;;16.58;86.17
51439;BME280;38816;51.142;-0.974;2022-09-09T12:01:39;99365.34;;;16.70;86.05
51439;BME280;38816;51.142;-0.974;2022-09-09T12:06:44;99360.59;;;16.90;85.35
51439;BME280;38816;51.142;-0.974;2022-09-09T12:11:44;99361.78;;;17.13;85.22
51439;BME280;38816;51.142;-0.974;2022-09-09T12:14:20;99366.84;;;17.17;84.49
51439;BME280;38816;51.142;-0.974;2022-09-09T12:16:46;99368.03;;;17.04;84.63
51439;BME280;38816;51.142;-0.974;2022-09-09T12:22:03;99368.00;;;17.06;83.51
51439;BME280;38816;51.142;-0.974;2022-09-09T12:27:20;99363.91;;;17.65;81.35
51439;BME280;38816;51.142;-0.974;2022-09-09T12:30:02;99359.94;;;17.85;78.78
51439;BME280;38816;51.142;-0.974;2022-09-09T12:32:28;99363.59;;;18.09;78.39
51439;BME280;38816;51.142;-0.974;2022-09-09T12:35:11;99363.84;;;18.31;77.33
51439;BME280;38816;51.142;-0.974;2022-09-09T12:37:46;99361.53;;;18.51;73.93
51439;BME280;38816;51.142;-0.974;2022-09-09T12:40:26;99353.19;;;18.69;74.91
51439;BME280;38816;51.142;-0.974;2022-09-09T12:42:52;99360.78;;;18.76;74.21
51439;BME280;38816;51.142;-0.974;2022-09-09T12:45:22;99365.22;;;18.72;74.36
51439;BME280;38816;51.142;-0.974;2022-09-09T12:48:00;99372.78;;;18.52;77.42
51439;BME280;38816;51.142;-0.974;2022-09-09T12:50:32;99368.91;;;18.35;78.25
51439;BME280;38816;51.142;-0.974;2022-09-09T12:53:10;99368.69;;;18.13;78.31
51439;BME280;38816;51.142;-0.974;2022-09-09T12:55:49;99364.59;;;18.05;81.60
51439;BME280;38816;51.142;-0.974;2022-09-09T12:58:16;99378.16;;;18.16;81.64
51439;BME280;38816;51.142;-0.974;2022-09-09T13:00:54;99371.50;;;18.35;82.14
51439;BME280;38816;51.142;-0.974;2022-09-09T13:03:23;99376.44;;;18.44;81.29
51439;BME280;38816;51.142;-0.974;2022-09-09T13:05:50;99372.59;;;18.58;80.54
51439;BME280;38816;51.142;-0.974;2022-09-09T13:08:17;99378.94;;;18.79;78.44
51439;BME280;38816;51.142;-0.974;2022-09-09T13:13:15;99377.09;;;19.09;77.02
51439;BME280;38816;51.142;-0.974;2022-09-09T13:15:52;99373.31;;;19.19;76.11
51439;BME280;38816;51.142;-0.974;2022-09-09T13:18:22;99372.25;;;19.25;76.58
51439;BME280;38816;51.142;-0.974;2022-09-09T13:20:49;99377.53;;;19.21;74.43
51439;BME280;38816;51.142;-0.974;2022-09-09T13:23:16;99377.44;;;18.98;75.80
51439;BME280;38816;51.142;-0.974;2022-09-09T13:25:58;99368.66;;;18.74;78.75
51439;BME280;38816;51.142;-0.974;2022-09-09T13:28:28;99367.03;;;18.70;79.58
51439;BME280;38816;51.142;-0.974;2022-09-09T13:31:04;99372.13;;;18.73;77.75
51439;BME280;38816;51.142;-0.974;2022-09-09T13:33:34;99369.16;;;18.85;77.94
51439;BME280;38816;51.142;-0.974;2022-09-09T13:36:04;99355.84;;;19.21;73.09
51439;BME280;38816;51.142;-0.974;2022-09-09T13:38:40;99372.69;;;19.64;73.30
51439;BME280;38816;51.142;-0.974;2022-09-09T13:41:34;99383.38;;;19.81;69.83
51439;BME280;38816;51.142;-0.974;2022-09-09T13:44:01;99373.84;;;20.05;70.14
51439;BME280;38816;51.142;-0.974;2022-09-09T13:46:40;99390.78;;;20.17;66.37
51439;BME280;38816;51.142;-0.974;2022-09-09T13:54:03;99378.72;;;20.83;65.73
51439;BME280;38816;51.142;-0.974;2022-09-09T13:56:31;99391.75;;;20.63;65.59
51439;BME280;38816;51.142;-0.974;2022-09-09T13:58:57;99381.53;;;21.01;64.64
51439;BME280;38816;51.142;-0.974;2022-09-09T14:01:23;99376.41;;;21.41;65.95
51439;BME280;38816;51.142;-0.974;2022-09-09T14:03:48;99378.25;;;21.39;62.61
51439;BME280;38816;51.142;-0.974;2022-09-09T14:06:14;99393.16;;;21.58;62.65
51439;BME280;38816;51.142;-0.974;2022-09-09T14:08:39;99389.56;;;21.18;60.94
51439;BME280;38816;51.142;-0.974;2022-09-09T14:11:05;99385.09;;;20.54;63.49
51439;BME280;38816;51.142;-0.974;2022-09-09T14:13:32;99390.91;;;20.14;66.77
51439;BME280;38816;51.142;-0.974;2022-09-09T14:15:57;99394.03;;;20.00;67.91
51439;BME280;38816;51.142;-0.974;2022-09-09T14:18:23;99391.38;;;20.25;65.88
51439;BME280;38816;51.142;-0.974;2022-09-09T14:20:50;99384.97;;;20.57;64.83
51439;BME280;38816;51.142;-0.974;2022-09-09T14:23:16;99378.16;;;20.77;66.90
51439;BME280;38816;51.142;-0.974;2022-09-09T14:25:43;99386.94;;;20.96;64.05
51439;BME280;38816;51.142;-0.974;2022-09-09T14:28:12;99391.88;;;21.04;63.50
51439;BME280;38816;51.142;-0.974;2022-09-09T14:30:42;99406.25;;;20.70;62.59
51439;BME280;38816;51.142;-0.974;2022-09-09T14:33:10;99390.59;;;20.23;64.60
51439;BME280;38816;51.142;-0.974;2022-09-09T14:35:36;99401.75;;;19.78;66.21
51439;BME280;38816;51.142;-0.974;2022-09-09T14:38:03;99393.50;;;19.39;68.19
51439;BME280;38816;51.142;-0.974;2022-09-09T14:40:28;99404.41;;;19.50;69.81
51439;BME280;38816;51.142;-0.974;2022-09-09T14:42:54;99391.84;;;19.36;68.84
51439;BME280;38816;51.142;-0.974;2022-09-09T14:45:22;99407.88;;;19.24;70.06
51439;BME280;38816;51.142;-0.974;2022-09-09T14:47:50;99397.91;;;19.10;73.04
51439;BME280;38816;51.142;-0.974;2022-09-09T14:50:16;99394.34;;;19.66;72.13
51439;BME280;38816;51.142;-0.974;2022-09-09T14:52:41;99398.34;;;20.01;71.13
51439;BME280;38816;51.142;-0.974;2022-09-09T14:55:07;99405.09;;;20.30;72.28